• Join FlightAware (Why Join?)
  • Login
  • US Flag 
03:16PM EDT


 

Airport Tracker/Info


-or-


 

Live Flight TrackerFlight Track Log ✈ LXJ542 ✈ 13-Sep-2013 ✈ KSJC - KCMA

Flight Track Log - Related Links

Times and Time Zones

All times are in EDT time to prevent confusion due to time zone crossing. See the LXJ542 flight status page for this flight to view local times or setup timezone preferences in your user account.

Time Position Orientation Groundspeed Altitude Reporting Facility
EDT Latitude Longitude Course Direction KTS MPH feet Rate Location/Type
04:55PM 37.4500 -121.9500 28° Northeast 220 253 3,900  Level Northern Cal TRACON
04:56PM 37.4000 -121.8833 133° Southeast 230 265 5,100 2,160 Climbing Northern Cal TRACON
04:58PM 37.3272 -121.8064 140° Southeast 255 293 9,600 3,060 Climbing Oakland Center
04:59PM 37.2428 -121.7106 138° Southeast 330 380 13,300 3,000 Climbing Oakland Center
05:00PM 36.9114 -121.5049 138° Southeast  Level Estimated
05:00PM 37.1708 -121.6289 138° Southeast 346 398 15,900  Level Oakland Center
05:01PM 37.0847 -121.5369 140° Southeast 386 444 18,700 2,580 Climbing Oakland Center
05:02PM 37.0019 -121.4422 138° Southeast 399 459 21,200 2,460 Climbing Oakland Center
05:03PM 36.9139 -121.3464 139° Southeast 413 475 23,800 2,220 Climbing Oakland Center
05:04PM 36.8236 -121.2467 139° Southeast 428 493 25,900 2,040 Climbing Oakland Center
05:05PM 36.7297 -121.1450 139° Southeast 443 510 28,000 1,980 Climbing Oakland Center
05:06PM 36.6339 -121.0400 139° Southeast 454 522 30,000 1,680 Climbing Oakland Center
05:07PM 36.5342 -120.9325 139° Southeast 466 536 31,500 1,500 Climbing Oakland Center
05:08PM 36.4119 -120.7969 138° Southeast 485 558 33,100 1,620 Climbing Oakland Center
05:09PM 36.3086 -120.6853 139° Southeast 491 565 34,900 1,500 Climbing Oakland Center
05:11PM 36.1011 -120.4628 139° Southeast 493 567 37,900 1,200 Climbing Los Angeles Center
05:12PM 35.9969 -120.3464 138° Southeast 500 575 38,800 480 Climbing Los Angeles Center
05:13PM 35.8919 -120.2344 139° Southeast 497 572 39,000 60 Climbing Los Angeles Center
05:14PM 35.7869 -120.1250 140° Southeast 494 568 39,000 -120 Level Oakland Center
05:15PM 35.6706 -120.0381 149° Southeast 483 556 38,800 -1,500 Descending Oakland Center
05:16PM 35.5275 -119.9419 151° Southeast 482 555 36,000 -2,820 Descending Oakland Center
05:17PM 35.4047 -119.8628 152° Southeast 490 564 32,900 -2,940 Descending Los Angeles Center
05:18PM 35.2819 -119.7839 152° Southeast 493 567 29,800 -3,120 Descending Los Angeles Center
05:20PM 35.1364 -119.6897 152° Southeast 493 567 25,800 -3,180 Descending Los Angeles Center
05:21PM 35.0214 -119.6161 152° Southeast 475 547 22,600 -3,120 Descending Los Angeles Center
05:22PM 34.8308 -119.4950 152° Southeast 436 502 17,100 -3,000 Descending Oakland Center
05:23PM 34.7303 -119.4286 152° Southeast 423 487 14,200 -2,520 Descending Oakland Center
05:24PM 34.6192 -119.3564 152° Southeast 394 453 12,000 -1,560 Descending Oakland Center
05:26PM 34.5089 -119.2836 151° Southeast 340 391 10,600 -1,080 Descending Los Angeles Center
05:26PM 34.4950 -119.2747 152° Southeast 312 359 10,400 -900 Descending Los Angeles Center
05:27PM 34.4358 -119.2389 153° Southeast 301 346 9,700 -1,020 Descending Los Angeles Center
05:27PM 34.4097 -119.2214 151° Southeast 277 319 9,200 -1,500 Descending Los Angeles Center
05:28PM 34.3681 -119.1939 151° Southeast 283 326 8,200 -2,040 Descending Los Angeles Center
05:28PM 34.3439 -119.1775 151° Southeast 274 315 7,200 -2,400 Descending Los Angeles Center
05:29PM 34.3006 -119.1503 153° Southeast 279 321 5,700 -1,920 Descending Los Angeles Center
05:29PM 34.2733 -119.1325 152° Southeast 272 313 5,300 -1,020 Descending Los Angeles Center
05:30PM 34.2394 -119.1122 154° Southeast 261 300 4,700 -1,140 Descending Los Angeles Center
05:30PM 34.2233 -119.1019 152° Southeast 191 220 4,200 -1,500 Descending Los Angeles Center
05:31PM 34.1989 -119.0844 149° Southeast 202 232 3,200 -1,620 Descending Los Angeles Center
05:31PM 34.1894 -119.0658 122° Southeast 142 163 2,600 -1,680 Descending Los Angeles Center
05:32PM 34.2022 -119.0358 63° Northeast 150 173 1,300 -1,500 Descending Los Angeles Center